Terminal Aerodrome Forecast
Issued by NWS Burlington, VT

Home | Current Version | Previous Version | Text Only | Print | Product List | Glossary On
Versions: 1 2 3 4 5 6 7 8 9 10 11 12 13 14 15 16 17
000
FTUS41 KBTV 280142 AAB
TAFBTV
TAF AMD
KBTV 280142Z 2802/2824 35013G25KT 5SM -SHSN BR SCT020 OVC035
      TEMPO 2802/2806 2SM -SN BR OVC020
     FM280600 34012G23KT 5SM -SHSN BR SCT020 OVC035
      TEMPO 2806/2809 2SM -SN BR OVC020
     FM280900 35009KT P6SM OVC020
     FM281200 35007KT P6SM SCT030
     FM281700 36005KT P6SM SKC=

USA.gov is the U.S. government's official web portal to all federal, state and local government web resources and services.